Fontana, California
Current Conditions -  °F | °C
As of 5:53 PM on Saturday 20 Dec 2014 (Local Time) from KONT Reporting Station
Scattered Clouds Scattered Clouds  
Wind Chill: 13°   Ceiling: Unl
Heat Index: 13°   Visibility: 8mi
Dew Point:   Wind: 3mph
Humidity: 74%   Direction: 300°WNW
Pressure: 30.15"   Gusts: NA
Location:  34.1°N, 117.43°W
Report Text: KONT 210153Z 30003KT 8SM SCT150 13/08 A3015 RMK AO2 SLP210 T01280083
Loading
Personal Weather Stations






























Interactive Weather Map New forecast layout! Learn more

10-Day Weather Forecast

Advertisements
Track Severe Weather on mobile